Classifiche di sempre
Migliori tempi personali validi di team tra tutti gli eventi e le stagioni. Ogni team compare una sola volta per divisione.
Cerca per nome e apri la pagina in cui è classificato questo record di divisione.
13,786 team in classifica
| Pos. | Pos. AG | Team | Nazionalità | Categoria età | TempoMiglior tempo | Distacco |
|---|---|---|---|---|---|---|
| 9026 | #3165 | Kelsey Keeler & Emma KacalUSA · W 30-34 · AG #3165 | USA | W 30-34 | 1:26:02 | +32:22 |
| 9027 | #3166 | Salina HANDY & Irene HARDJONOUSA · W 30-34 · AG #3166 | USA | W 30-34 | 1:26:02 | +32:22 |
| 9028 | #1250 | Emma Mulholland & Kayley WalkerGBR · W 35-39 · AG #1250 | GBR | W 35-39 | 1:26:02 | +32:22 |
| 9029 | #3167 | Catie Leiffer & Anniela AcostaW 30-34 · AG #3167 | -- | W 30-34 | 1:26:02 | +32:22 |
| 9030 | #1353 | Roxan Charleston & Sara GinnGBR · W 40-44 · AG #1353 | GBR | W 40-44 | 1:26:03 | +32:23 |
| 9031 | #1251 | Aurelija Kazlauskienė & Lukrecija Petkutė-DailydienėLTU · W 35-39 · AG #1251 | LTU | W 35-39 | 1:26:03 | +32:23 |
| 9032 | #3168 | Ariana Evans & Alex KatzUSA · W 30-34 · AG #3168 | USA | W 30-34 | 1:26:03 | +32:23 |
| 9033 | #1354 | Sarah Nolan & Beverley GoldenGBR · W 40-44 · AG #1354 | GBR | W 40-44 | 1:26:03 | +32:23 |
| 9034 | #3169 | wan yee Cheong & Rachel SohSIN · W 30-34 · AG #3169 | SIN | W 30-34 | 1:26:03 | +32:23 |
| 9035 | -- | Emma HARTLEY & Coco HOLLAND-WATERSONNZL · W WU29 | NZL | W WU29 | 1:26:04 | +32:24 |
| 9036 | -- | Jess Tedds & Heather McKuneGBR · W WU29 | GBR | W WU29 | 1:26:04 | +32:24 |
| 9037 | #3171 | Kat Parnell & Claudine CampGBR · W 30-34 · AG #3171 | GBR | W 30-34 | 1:26:04 | +32:24 |
| 9038 | #3170 | Rachel Weaver & Nicola DeedesGBR · W 30-34 · AG #3170 | GBR | W 30-34 | 1:26:04 | +32:24 |
| 9039 | #289 | Adeline Yuin Harn Tay & Natalie Mun Yee HoSIN · W 45-49 · AG #289 | SIN | W 45-49 | 1:26:04 | +32:24 |
| 9040 | #3172 | Laura Henry & Gemma MilneGBR · W 30-34 · AG #3172 | GBR | W 30-34 | 1:26:05 | +32:25 |
| 9041 | #12 | Ivy Chew & Danyu KohSIN · W 30-39 · AG #12 | SIN | W 30-39 | 1:26:05 | +32:25 |
| 9042 | #1582 | Sara Pisciella & Maria Niccolo'ITA · W 25-29 · AG #1582 | ITA | W 25-29 | 1:26:05 | +32:25 |
| 9043 | #3173 | Louise O’Carolan & Sara McvittyIRL · W 30-34 · AG #3173 | IRL | W 30-34 | 1:26:06 | +32:26 |
| 9044 | #193 | Tabetha Snape & Zoe WraggGBR · W 50-54 · AG #193 | GBR | W 50-54 | 1:26:06 | +32:26 |
| 9045 | #553 | 馨 覃 & 安然 徐CHN · W 16-24 · AG #553 | CHN | W 16-24 | 1:26:06 | +32:26 |
| 9046 | #1252 | Angélique Nozeret & Johanna BertrandFRA · W 35-39 · AG #1252 | FRA | W 35-39 | 1:26:07 | +32:27 |
| 9047 | #1355 | Patrice Haworth & Georgi RowleyW 40-44 · AG #1355 | -- | W 40-44 | 1:26:07 | +32:27 |
| 9048 | #1356 | Colette Hassim & Andriette KillianRSA · W 40-44 · AG #1356 | RSA | W 40-44 | 1:26:07 | +32:27 |
| 9049 | -- | Alana Childs & Natalie LynnGBR · W WU29 | GBR | W WU29 | 1:26:07 | +32:27 |
| 9050 | #3174 | Millie Knight & Leah McgregorGBR · W 30-34 · AG #3174 | GBR | W 30-34 | 1:26:07 | +32:27 |
Pagina 362 di 552